Time;durP1;ratioP1;P1;durP2;ratioP2;P2;SDS_P1;SDS_P2;PMS_P1;PMS_P2;Temp;Humidity;BMP_temperature;BMP_pressure;BME280_temperature;BME280_humidity;BME280_pressure;Samples;Min_cycle;Max_cycle;Signal;HPM_P1;HPM_P2
2021/06/09 00:00:22;;;;;;;27.73;23.07;;;;;;;;;;5033518;28;20505;-56
2021/06/09 00:02:48;;;;;;;30.13;25.30;;;;;;;;;;5033320;28;20442;-56
2021/06/09 00:05:14;;;;;;;29.67;21.83;;;;;;;;;;5033490;28;21079;-56
2021/06/09 00:07:40;;;;;;;26.20;22.57;;;;;;;;;;5033668;28;20415;-55
2021/06/09 00:10:07;;;;;;;29.80;21.73;;;;;;;;;;5033438;28;20418;-55
2021/06/09 00:12:33;;;;;;;29.93;24.30;;;;;;;;;;5033373;28;20553;-55
2021/06/09 00:15:00;;;;;;;27.30;21.83;;;;;;;;;;5033394;28;20455;-55
2021/06/09 00:17:26;;;;;;;28.83;22.67;;;;;;;;;;5033377;28;20398;-55
2021/06/09 00:19:52;;;;;;;26.40;22.37;;;;;;;;;;5033097;28;20393;-56
2021/06/09 00:22:18;;;;;;;25.80;22.10;;;;;;;;;;5031732;28;20406;-55
2021/06/09 00:24:45;;;;;;;31.50;24.97;;;;;;;;;;5033153;28;20414;-55
2021/06/09 00:27:11;;;;;;;29.80;23.00;;;;;;;;;;5033091;28;20402;-56
2021/06/09 00:29:37;;;;;;;37.07;26.17;;;;;;;;;;5032755;28;20938;-55
2021/06/09 00:32:04;;;;;;;39.47;28.27;;;;;;;;;;5032747;28;20410;-55
2021/06/09 00:34:30;;;;;;;42.67;27.37;;;;;;;;;;5032530;28;20997;-56
2021/06/09 00:36:56;;;;;;;48.70;27.00;;;;;;;;;;5031840;28;20450;-54
2021/06/09 00:39:22;;;;;;;41.50;27.67;;;;;;;;;;5031447;28;20523;-55
2021/06/09 00:41:48;;;;;;;37.53;27.40;;;;;;;;;;5032649;28;20404;-55
2021/06/09 00:44:14;;;;;;;36.00;26.13;;;;;;;;;;5032597;28;20902;-55
2021/06/09 00:46:42;;;;;;;29.93;26.37;;;;;;;;;;5032578;28;21001;-55
2021/06/09 00:49:08;;;;;;;37.13;27.33;;;;;;;;;;5032485;28;20397;-55
2021/06/09 00:51:34;;;;;;;32.00;27.07;;;;;;;;;;5032224;28;20398;-56
2021/06/09 00:54:05;;;;;;;37.23;28.10;;;;;;;;;;5032383;28;20422;-55
2021/06/09 00:56:32;;;;;;;35.90;27.90;;;;;;;;;;5032253;28;20551;-55
2021/06/09 00:58:58;;;;;;;30.20;26.53;;;;;;;;;;5032275;28;20422;-55
2021/06/09 01:01:25;;;;;;;34.03;28.13;;;;;;;;;;5031651;28;20472;-56
2021/06/09 01:03:51;;;;;;;36.13;28.30;;;;;;;;;;5031491;28;20381;-54
2021/06/09 01:06:17;;;;;;;32.60;28.40;;;;;;;;;;5031588;28;20406;-55
2021/06/09 01:08:43;;;;;;;37.53;30.17;;;;;;;;;;5032094;28;20889;-55
2021/06/09 01:11:11;;;;;;;36.23;26.90;;;;;;;;;;5032043;28;20413;-55
2021/06/09 01:13:37;;;;;;;36.30;28.00;;;;;;;;;;5031819;28;20432;-56
2021/06/09 01:16:03;;;;;;;44.60;32.40;;;;;;;;;;5031821;28;20454;-55
2021/06/09 01:18:29;;;;;;;44.60;32.30;;;;;;;;;;5031884;28;20898;-55
2021/06/09 01:20:57;;;;;;;40.33;31.87;;;;;;;;;;5031867;28;20394;-55
2021/06/09 01:23:23;;;;;;;37.40;31.40;;;;;;;;;;5031925;28;20918;-56
2021/06/09 01:25:50;;;;;;;35.10;29.50;;;;;;;;;;5031766;28;20934;-55
2021/06/09 01:28:16;;;;;;;42.93;32.07;;;;;;;;;;5031685;28;20960;-54
2021/06/09 01:30:42;;;;;;;42.03;32.47;;;;;;;;;;5031651;28;20887;-55
2021/06/09 01:33:09;;;;;;;35.33;28.93;;;;;;;;;;5031434;28;20384;-55
2021/06/09 01:35:35;;;;;;;37.63;32.10;;;;;;;;;;5031392;28;20447;-55
2021/06/09 01:38:01;;;;;;;42.00;32.80;;;;;;;;;;5031696;28;20467;-55
2021/06/09 01:40:28;;;;;;;38.20;30.43;;;;;;;;;;5031525;28;20426;-55
2021/06/09 01:42:54;;;;;;;38.83;30.70;;;;;;;;;;5031272;28;20377;-54
2021/06/09 01:45:22;;;;;;;35.93;29.40;;;;;;;;;;5031570;28;20415;-55
2021/06/09 01:47:48;;;;;;;37.77;27.70;;;;;;;;;;5031306;28;20427;-55
2021/06/09 01:50:15;;;;;;;37.23;28.27;;;;;;;;;;5031435;28;20396;-55
2021/06/09 01:52:41;;;;;;;39.40;28.70;;;;;;;;;;5031015;28;20460;-55
2021/06/09 01:55:08;;;;;;;35.30;29.30;;;;;;;;;;5031327;28;20424;-55
2021/06/09 01:57:35;;;;;;;32.10;27.93;;;;;;;;;;5031238;28;20441;-55
2021/06/09 02:00:08;;;;;;;39.53;31.07;;;;;;;;;;5031293;28;20388;-55
2021/06/09 02:02:34;;;;;;;33.90;28.07;;;;;;;;;;5031113;28;20402;-55
2021/06/09 02:05:00;;;;;;;39.37;30.60;;;;;;;;;;5031628;28;20381;-55
2021/06/09 02:07:26;;;;;;;38.47;30.13;;;;;;;;;;5030923;28;20423;-55
2021/06/09 02:09:52;;;;;;;40.70;30.70;;;;;;;;;;5031371;28;20401;-54
2021/06/09 02:12:21;;;;;;;42.30;31.40;;;;;;;;;;5030951;28;20392;-54
2021/06/09 02:14:47;;;;;;;37.67;28.93;;;;;;;;;;5031190;28;20377;-55
2021/06/09 02:17:13;;;;;;;39.47;30.63;;;;;;;;;;5031047;28;20392;-55
2021/06/09 02:19:39;;;;;;;48.77;34.03;;;;;;;;;;5031027;28;20425;-54
2021/06/09 02:22:05;;;;;;;36.90;31.30;;;;;;;;;;5030671;28;20459;-55
2021/06/09 02:24:32;;;;;;;41.30;30.03;;;;;;;;;;5030847;28;20441;-55
2021/06/09 02:26:58;;;;;;;45.90;31.53;;;;;;;;;;5030788;28;20398;-55
2021/06/09 02:29:24;;;;;;;41.27;31.77;;;;;;;;;;5029521;28;20416;-55
2021/06/09 02:31:51;;;;;;;38.80;30.47;;;;;;;;;;5030515;28;20407;-54
2021/06/09 02:34:19;;;;;;;42.83;28.60;;;;;;;;;;5030628;28;20926;-55
2021/06/09 02:36:45;;;;;;;34.70;28.13;;;;;;;;;;5030523;28;20440;-54
2021/06/09 02:39:11;;;;;;;33.90;28.00;;;;;;;;;;5031211;28;20418;-54
2021/06/09 02:41:38;;;;;;;33.30;29.37;;;;;;;;;;5031584;28;20384;-54
2021/06/09 02:44:05;;;;;;;32.20;27.60;;;;;;;;;;5031387;28;20469;-54
2021/06/09 02:46:31;;;;;;;31.67;28.37;;;;;;;;;;5031528;28;20392;-54
2021/06/09 02:49:01;;;;;;;39.07;31.30;;;;;;;;;;5031002;28;20397;-54
2021/06/09 02:51:30;;;;;;;35.77;29.17;;;;;;;;;;5031052;28;20372;-54
2021/06/09 02:53:59;;;;;;;46.53;33.37;;;;;;;;;;5030874;28;20782;-54
2021/06/09 02:56:29;;;;;;;47.20;31.00;;;;;;;;;;5031030;28;20457;-54
2021/06/09 02:59:04;;;;;;;39.00;29.80;;;;;;;;;;5031076;28;20991;-54
2021/06/09 03:01:35;;;;;;;41.30;31.23;;;;;;;;;;5031193;28;20733;-54
2021/06/09 03:04:20;;;;;;;36.50;29.37;;;;;;;;;;5031126;28;20372;-54
2021/06/09 03:06:55;;;;;;;42.13;29.37;;;;;;;;;;5031365;28;20381;-54
2021/06/09 03:09:24;;;;;;;40.30;29.90;;;;;;;;;;5031430;28;20395;-54
2021/06/09 03:12:28;;;;;;;38.70;30.90;;;;;;;;;;5031224;28;20401;-54
2021/06/09 03:15:14;;;;;;;39.60;30.83;;;;;;;;;;5010016;28;20432;-54
2021/06/09 03:17:55;;;;;;;46.93;32.57;;;;;;;;;;5031596;28;20426;-55
2021/06/09 03:20:21;;;;;;;39.73;30.47;;;;;;;;;;5032594;28;20425;-54
2021/06/09 03:22:53;;;;;;;40.00;30.43;;;;;;;;;;5034705;28;20394;-54
2021/06/09 03:25:21;;;;;;;37.57;31.40;;;;;;;;;;5035197;28;20409;-54
2021/06/09 03:27:55;;;;;;;39.83;30.50;;;;;;;;;;5034861;28;20412;-54
2021/06/09 03:30:23;;;;;;;39.17;32.03;;;;;;;;;;5034470;28;20951;-54
2021/06/09 03:32:58;;;;;;;46.57;34.43;;;;;;;;;;5034202;28;20463;-54
2021/06/09 03:35:39;;;;;;;45.97;34.97;;;;;;;;;;5034225;28;20531;-54
2021/06/09 03:38:09;;;;;;;46.03;36.90;;;;;;;;;;5034380;28;20410;-54
2021/06/09 03:40:41;;;;;;;47.10;35.07;;;;;;;;;;5034574;28;20525;-54
2021/06/09 03:43:09;;;;;;;42.73;34.60;;;;;;;;;;5034637;28;20765;-54
2021/06/09 03:45:39;;;;;;;42.93;33.90;;;;;;;;;;5034489;28;20403;-54
2021/06/09 03:48:05;;;;;;;48.80;35.20;;;;;;;;;;5035161;28;20361;-54
2021/06/09 03:50:31;;;;;;;47.80;35.07;;;;;;;;;;5034691;28;20432;-54
2021/06/09 03:53:02;;;;;;;42.00;34.23;;;;;;;;;;5034122;28;20401;-54
2021/06/09 03:55:29;;;;;;;45.10;34.90;;;;;;;;;;5034287;28;20436;-54
2021/06/09 03:57:55;;;;;;;44.97;35.07;;;;;;;;;;5034506;28;20749;-54
2021/06/09 04:00:22;;;;;;;45.13;34.80;;;;;;;;;;5033866;28;20425;-54
2021/06/09 04:02:49;;;;;;;44.50;33.63;;;;;;;;;;5034165;28;20381;-54
2021/06/09 04:05:15;;;;;;;45.20;33.47;;;;;;;;;;5033938;28;20398;-54
2021/06/09 04:07:43;;;;;;;42.00;34.07;;;;;;;;;;5033976;28;20411;-54
2021/06/09 04:10:10;;;;;;;42.63;34.30;;;;;;;;;;5033881;28;20396;-54
2021/06/09 04:12:36;;;;;;;43.17;32.97;;;;;;;;;;5033779;28;20402;-54
2021/06/09 04:15:03;;;;;;;40.53;30.77;;;;;;;;;;5034073;28;20520;-54
2021/06/09 04:17:30;;;;;;;41.77;33.30;;;;;;;;;;5033967;28;20512;-54
2021/06/09 04:19:58;;;;;;;44.83;34.70;;;;;;;;;;5033557;28;20442;-54
2021/06/09 04:22:24;;;;;;;40.33;33.50;;;;;;;;;;5033798;28;20377;-54
2021/06/09 04:24:50;;;;;;;45.97;34.07;;;;;;;;;;5033983;28;20377;-54
2021/06/09 04:27:21;;;;;;;44.73;33.90;;;;;;;;;;5033758;28;21067;-54
2021/06/09 04:29:48;;;;;;;46.30;35.03;;;;;;;;;;5033285;28;20763;-54
2021/06/09 04:32:14;;;;;;;45.90;35.90;;;;;;;;;;5032881;28;20372;-55
2021/06/09 04:34:48;;;;;;;47.23;33.73;;;;;;;;;;5033207;28;20401;-54
2021/06/09 04:37:14;;;;;;;41.70;32.70;;;;;;;;;;5033597;28;20987;-55
2021/06/09 04:39:41;;;;;;;51.30;36.17;;;;;;;;;;5033683;28;20787;-54
2021/06/09 04:42:07;;;;;;;48.77;34.80;;;;;;;;;;5035132;28;20377;-55
2021/06/09 04:44:34;;;;;;;54.43;36.33;;;;;;;;;;5035186;28;20415;-54
2021/06/09 04:47:00;;;;;;;49.50;36.57;;;;;;;;;;5034970;28;20428;-54
2021/06/09 04:49:33;;;;;;;50.03;37.97;;;;;;;;;;5035397;28;20426;-54
2021/06/09 04:51:59;;;;;;;52.23;37.20;;;;;;;;;;5034551;28;20385;-56
2021/06/09 04:54:25;;;;;;;48.97;35.87;;;;;;;;;;5035326;28;20470;-54
2021/06/09 04:56:51;;;;;;;46.80;35.57;;;;;;;;;;5035484;28;20516;-54
2021/06/09 04:59:17;;;;;;;44.73;35.87;;;;;;;;;;5035210;28;20462;-55
2021/06/09 05:01:43;;;;;;;47.60;35.10;;;;;;;;;;5035449;28;20365;-55
2021/06/09 05:04:09;;;;;;;47.73;35.77;;;;;;;;;;5034223;28;20486;-54
2021/06/09 05:06:35;;;;;;;49.43;34.50;;;;;;;;;;5032863;28;20505;-55
2021/06/09 05:09:02;;;;;;;42.30;32.50;;;;;;;;;;5032653;28;20422;-54
2021/06/09 05:11:49;;;;;;;52.30;34.97;;;;;;;;;;5032304;28;20415;-55
2021/06/09 05:14:16;;;;;;;49.80;33.77;;;;;;;;;;5032675;28;20421;-54
2021/06/09 05:16:43;;;;;;;44.90;34.57;;;;;;;;;;5032633;28;20450;-54
2021/06/09 05:19:10;;;;;;;39.60;32.23;;;;;;;;;;5032786;28;20430;-54
2021/06/09 05:21:38;;;;;;;45.57;31.50;;;;;;;;;;5032235;28;20372;-54
2021/06/09 05:24:04;;;;;;;43.47;33.27;;;;;;;;;;5032814;28;20407;-54
2021/06/09 05:26:32;;;;;;;44.40;33.40;;;;;;;;;;5032672;28;20895;-54
2021/06/09 05:29:01;;;;;;;48.93;35.83;;;;;;;;;;5032642;28;20430;-54
2021/06/09 05:31:27;;;;;;;51.47;38.57;;;;;;;;;;5032287;28;20373;-54
2021/06/09 05:33:54;;;;;;;52.77;38.13;;;;;;;;;;5032313;28;20733;-54
2021/06/09 05:36:21;;;;;;;56.30;40.37;;;;;;;;;;5032331;28;20435;-54
2021/06/09 05:38:47;;;;;;;50.67;37.53;;;;;;;;;;5032234;28;20448;-54
2021/06/09 05:41:13;;;;;;;54.17;35.53;;;;;;;;;;5031802;28;20366;-54
2021/06/09 05:43:40;;;;;;;46.07;31.63;;;;;;;;;;5031268;28;20376;-54
2021/06/09 05:46:07;;;;;;;40.77;30.00;;;;;;;;;;5031880;28;20394;-54
2021/06/09 05:48:33;;;;;;;37.20;29.87;;;;;;;;;;5031663;28;20438;-54
2021/06/09 05:50:59;;;;;;;39.03;30.80;;;;;;;;;;5031943;28;20402;-54
2021/06/09 05:53:31;;;;;;;41.87;31.47;;;;;;;;;;5031866;28;20388;-55
2021/06/09 05:55:57;;;;;;;41.27;31.90;;;;;;;;;;5032517;28;20524;-54
2021/06/09 05:58:23;;;;;;;41.97;32.20;;;;;;;;;;5031787;28;20463;-53
2021/06/09 06:00:52;;;;;;;50.63;33.40;;;;;;;;;;5031947;28;20398;-54
2021/06/09 06:03:18;;;;;;;42.53;33.07;;;;;;;;;;5031479;28;20392;-55
2021/06/09 06:05:46;;;;;;;38.67;30.37;;;;;;;;;;5032110;28;20522;-54
2021/06/09 06:08:12;;;;;;;38.47;30.27;;;;;;;;;;5031995;28;20407;-54
2021/06/09 06:10:38;;;;;;;39.07;29.80;;;;;;;;;;5032121;28;20754;-54
2021/06/09 06:13:05;;;;;;;44.30;32.50;;;;;;;;;;5031596;28;20929;-54
2021/06/09 06:15:31;;;;;;;43.30;30.47;;;;;;;;;;5031877;28;20443;-54
2021/06/09 06:17:57;;;;;;;37.50;29.30;;;;;;;;;;5031834;28;20418;-54
2021/06/09 06:20:24;;;;;;;41.17;31.33;;;;;;;;;;5031627;28;20422;-54
2021/06/09 06:22:50;;;;;;;39.30;31.17;;;;;;;;;;5031599;28;20452;-54
2021/06/09 06:25:18;;;;;;;43.10;30.23;;;;;;;;;;5032042;28;20410;-54
2021/06/09 06:27:48;;;;;;;41.43;31.30;;;;;;;;;;5031749;28;20403;-54
2021/06/09 06:30:15;;;;;;;37.17;30.07;;;;;;;;;;5031888;28;20822;-53
2021/06/09 06:32:41;;;;;;;39.30;30.27;;;;;;;;;;5031693;28;20409;-54
2021/06/09 06:35:08;;;;;;;37.00;30.37;;;;;;;;;;5031507;28;20996;-53
2021/06/09 06:37:33;;;;;;;43.13;28.97;;;;;;;;;;5032560;28;20406;-53
2021/06/09 06:39:59;;;;;;;36.13;28.27;;;;;;;;;;5032340;28;20817;-54
2021/06/09 06:42:25;;;;;;;36.73;28.70;;;;;;;;;;5032215;28;20402;-53
2021/06/09 06:44:52;;;;;;;39.20;30.17;;;;;;;;;;5033439;28;20377;-54
2021/06/09 06:47:19;;;;;;;40.77;31.00;;;;;;;;;;5032053;28;20433;-53
2021/06/09 06:49:45;;;;;;;40.40;30.27;;;;;;;;;;5033773;28;20429;-53
2021/06/09 06:52:12;;;;;;;41.67;31.43;;;;;;;;;;5033975;28;20402;-53
2021/06/09 06:54:38;;;;;;;37.53;30.63;;;;;;;;;;5036155;28;20417;-53
2021/06/09 06:57:04;;;;;;;39.60;31.37;;;;;;;;;;5038242;28;20445;-53
2021/06/09 06:59:30;;;;;;;37.90;30.27;;;;;;;;;;5037742;28;20984;-53
2021/06/09 07:01:57;;;;;;;33.53;26.63;;;;;;;;;;5038090;28;20402;-53
2021/06/09 07:04:23;;;;;;;42.47;29.70;;;;;;;;;;5036793;28;20398;-53
2021/06/09 07:06:50;;;;;;;33.20;27.83;;;;;;;;;;5037476;28;20406;-54
2021/06/09 07:09:17;;;;;;;34.40;28.90;;;;;;;;;;5038293;28;20545;-54
2021/06/09 07:11:45;;;;;;;36.47;28.00;;;;;;;;;;5037057;28;20434;-54
2021/06/09 07:14:11;;;;;;;37.23;27.57;;;;;;;;;;5036996;28;20406;-53
2021/06/09 07:16:37;;;;;;;38.80;28.40;;;;;;;;;;5037601;28;20453;-53
2021/06/09 07:19:05;;;;;;;36.00;29.13;;;;;;;;;;5036798;28;20422;-53
2021/06/09 07:21:32;;;;;;;34.93;27.40;;;;;;;;;;5036941;28;20426;-54
2021/06/09 07:23:59;;;;;;;33.80;27.80;;;;;;;;;;5037165;28;20380;-53
2021/06/09 07:26:28;;;;;;;30.40;24.53;;;;;;;;;;5037536;28;20404;-54
2021/06/09 07:28:55;;;;;;;34.67;27.43;;;;;;;;;;5036770;28;20926;-54
2021/06/09 07:31:28;;;;;;;30.93;27.53;;;;;;;;;;5036508;28;20434;-54
2021/06/09 07:33:54;;;;;;;36.30;27.10;;;;;;;;;;5036422;28;20921;-54
2021/06/09 07:36:22;;;;;;;31.83;24.37;;;;;;;;;;5036212;28;20492;-54
2021/06/09 07:38:50;;;;;;;38.20;26.73;;;;;;;;;;5036078;28;20945;-54
2021/06/09 07:41:18;;;;;;;40.90;27.87;;;;;;;;;;5034955;28;20401;-54
2021/06/09 07:43:45;;;;;;;29.97;25.30;;;;;;;;;;5035173;28;20402;-54
2021/06/09 07:46:15;;;;;;;37.03;26.67;;;;;;;;;;5035014;28;20913;-53
2021/06/09 07:48:42;;;;;;;35.10;27.43;;;;;;;;;;5035139;28;21092;-54
2021/06/09 07:51:13;;;;;;;34.17;26.30;;;;;;;;;;5034804;28;20402;-54
2021/06/09 07:53:39;;;;;;;33.10;26.87;;;;;;;;;;5034443;28;20778;-54
2021/06/09 07:56:06;;;;;;;39.70;31.20;;;;;;;;;;5034906;28;20461;-54
2021/06/09 07:58:33;;;;;;;34.20;26.10;;;;;;;;;;5035088;28;20756;-54
2021/06/09 08:01:00;;;;;;;33.27;29.00;;;;;;;;;;5034923;28;20407;-54
2021/06/09 08:03:26;;;;;;;33.60;28.07;;;;;;;;;;5034622;28;20402;-54
2021/06/09 08:05:53;;;;;;;35.50;26.63;;;;;;;;;;5033736;28;20402;-54
2021/06/09 08:08:19;;;;;;;31.43;27.80;;;;;;;;;;5033988;28;20816;-54
2021/06/09 08:10:46;;;;;;;30.17;24.67;;;;;;;;;;5033983;28;20437;-54
2021/06/09 08:13:12;;;;;;;32.30;23.67;;;;;;;;;;5034097;28;20415;-54
2021/06/09 08:15:39;;;;;;;25.10;22.17;;;;;;;;;;5034393;28;20480;-54
2021/06/09 08:18:06;;;;;;;26.53;21.73;;;;;;;;;;5034505;28;20464;-54
2021/06/09 08:20:32;;;;;;;31.23;24.93;;;;;;;;;;5033977;28;20423;-55
2021/06/09 08:22:58;;;;;;;29.27;22.00;;;;;;;;;;5034259;28;20410;-54
2021/06/09 08:25:24;;;;;;;24.87;19.97;;;;;;;;;;5034321;28;20406;-54
2021/06/09 08:27:54;;;;;;;24.20;20.37;;;;;;;;;;5034337;28;20946;-54
2021/06/09 08:30:21;;;;;;;26.50;22.50;;;;;;;;;;5033910;28;20930;-54
2021/06/09 08:32:47;;;;;;;29.60;24.40;;;;;;;;;;5033217;28;20406;-54
2021/06/09 08:35:13;;;;;;;27.90;23.47;;;;;;;;;;5052615;28;20965;-54
2021/06/09 08:37:42;;;;;;;26.10;22.33;;;;;;;;;;5053413;28;20485;-54
2021/06/09 08:40:09;;;;;;;32.37;25.13;;;;;;;;;;5052987;28;20425;-53
2021/06/09 08:42:36;;;;;;;29.47;23.97;;;;;;;;;;5052403;28;20919;-54
2021/06/09 08:45:04;;;;;;;28.77;24.93;;;;;;;;;;5052632;28;20408;-53
2021/06/09 08:47:30;;;;;;;30.43;25.83;;;;;;;;;;5052468;28;20404;-53
2021/06/09 08:49:56;;;;;;;27.17;24.20;;;;;;;;;;5052264;28;21028;-52
2021/06/09 08:52:23;;;;;;;26.37;23.67;;;;;;;;;;5052097;28;20417;-52
2021/06/09 08:54:49;;;;;;;26.70;22.00;;;;;;;;;;5052335;28;20406;-52
2021/06/09 08:57:15;;;;;;;21.90;19.60;;;;;;;;;;5050933;28;20492;-52
2021/06/09 08:59:45;;;;;;;27.17;20.83;;;;;;;;;;5052227;28;20467;-54
2021/06/09 09:02:11;;;;;;;22.30;19.90;;;;;;;;;;5051947;28;20412;-52
2021/06/09 09:04:38;;;;;;;21.63;19.50;;;;;;;;;;5052123;28;20465;-53
2021/06/09 09:07:05;;;;;;;22.97;20.63;;;;;;;;;;5052056;28;20401;-52
2021/06/09 09:09:31;;;;;;;22.80;19.97;;;;;;;;;;5052163;28;20421;-55
2021/06/09 09:11:57;;;;;;;26.40;23.60;;;;;;;;;;5051807;28;20412;-55
2021/06/09 09:14:23;;;;;;;25.00;19.87;;;;;;;;;;5052000;28;20471;-53
2021/06/09 09:17:08;;;;;;;24.27;19.93;;;;;;;;;;5051475;28;20463;-55
2021/06/09 09:19:38;;;;;;;23.70;21.23;;;;;;;;;;5051568;28;20467;-53
2021/06/09 09:22:04;;;;;;;26.67;23.93;;;;;;;;;;5051695;28;20398;-52
2021/06/09 09:24:49;;;;;;;23.10;20.80;;;;;;;;;;5051613;28;20393;-53
2021/06/09 09:27:24;;;;;;;22.87;20.60;;;;;;;;;;5051689;28;20402;-52
2021/06/09 09:30:00;;;;;;;21.23;19.20;;;;;;;;;;5051642;28;20428;-54
2021/06/09 09:32:26;;;;;;;21.00;19.00;;;;;;;;;;5051556;28;20408;-53
2021/06/09 09:34:52;;;;;;;25.73;23.10;;;;;;;;;;5051322;28;20500;-53
2021/06/09 09:37:27;;;;;;;24.07;21.57;;;;;;;;;;5051534;28;20401;-53
2021/06/09 09:40:06;;;;;;;22.43;20.23;;;;;;;;;;5051346;28;20413;-52
2021/06/09 09:42:35;;;;;;;21.47;18.70;;;;;;;;;;5051382;28;20790;-52
2021/06/09 09:45:15;;;;;;;25.87;20.07;;;;;;;;;;5051403;28;20762;-52
2021/06/09 09:47:41;;;;;;;22.03;19.00;;;;;;;;;;5051512;28;20949;-52
2021/06/09 09:50:07;;;;;;;20.37;18.47;;;;;;;;;;5051184;28;20928;-52
2021/06/09 09:52:49;;;;;;;21.57;19.40;;;;;;;;;;5051164;28;20409;-52
2021/06/09 09:55:15;;;;;;;21.73;19.40;;;;;;;;;;5051190;28;20456;-52
2021/06/09 09:57:41;;;;;;;20.03;17.90;;;;;;;;;;5051256;28;20513;-52
2021/06/09 10:00:08;;;;;;;18.50;16.80;;;;;;;;;;5051034;28;20417;-53
2021/06/09 10:02:34;;;;;;;17.57;15.70;;;;;;;;;;5050961;28;20447;-52
2021/06/09 10:05:13;;;;;;;18.87;16.90;;;;;;;;;;5051239;28;20749;-52
2021/06/09 10:07:39;;;;;;;16.33;14.90;;;;;;;;;;5051053;28;20397;-53
2021/06/09 10:10:06;;;;;;;18.80;17.00;;;;;;;;;;5050854;28;20457;-53
2021/06/09 10:12:32;;;;;;;20.80;18.57;;;;;;;;;;5050851;28;20429;-52
2021/06/09 10:14:59;;;;;;;21.87;19.70;;;;;;;;;;5050821;28;20405;-52
2021/06/09 10:17:26;;;;;;;17.17;15.53;;;;;;;;;;5050866;28;20496;-53
2021/06/09 10:19:54;;;;;;;17.17;15.50;;;;;;;;;;5050811;28;20963;-52
2021/06/09 10:22:21;;;;;;;18.63;16.67;;;;;;;;;;5050730;28;20812;-52
2021/06/09 10:24:57;;;;;;;18.33;16.20;;;;;;;;;;5050814;28;20405;-53
2021/06/09 10:27:33;;;;;;;19.50;17.60;;;;;;;;;;5050766;28;20424;-53
2021/06/09 10:29:59;;;;;;;16.03;14.43;;;;;;;;;;5050268;28;20432;-52
2021/06/09 10:32:27;;;;;;;15.00;13.57;;;;;;;;;;5050345;28;20413;-52
2021/06/09 10:34:53;;;;;;;16.67;15.07;;;;;;;;;;5050629;28;20425;-52
2021/06/09 10:37:19;;;;;;;18.13;16.03;;;;;;;;;;5050829;28;20761;-52
2021/06/09 10:39:45;;;;;;;12.67;11.60;;;;;;;;;;5043352;28;20441;-52
2021/06/09 10:42:14;;;;;;;17.57;15.73;;;;;;;;;;5048793;28;20409;-52
2021/06/09 10:44:47;;;;;;;12.40;11.30;;;;;;;;;;5049194;28;20390;-52
2021/06/09 10:47:23;;;;;;;13.50;12.20;;;;;;;;;;5049261;28;20767;-52
2021/06/09 10:49:49;;;;;;;17.13;12.13;;;;;;;;;;5050099;28;20452;-54
2021/06/09 10:52:16;;;;;;;13.00;11.73;;;;;;;;;;5050151;28;20437;-54
2021/06/09 10:54:42;;;;;;;13.43;12.00;;;;;;;;;;5050062;28;20405;-52
2021/06/09 10:57:09;;;;;;;14.30;12.20;;;;;;;;;;5050402;28;20487;-52
2021/06/09 10:59:35;;;;;;;13.77;12.40;;;;;;;;;;5048447;28;20425;-52
2021/06/09 11:02:03;;;;;;;17.43;14.27;;;;;;;;;;5039945;28;20820;-53
2021/06/09 11:04:34;;;;;;;13.40;12.17;;;;;;;;;;5050009;28;20451;-54
2021/06/09 11:07:00;;;;;;;13.43;12.33;;;;;;;;;;5049404;28;20917;-52
2021/06/09 11:09:27;;;;;;;15.43;13.90;;;;;;;;;;5048883;28;20428;-53
2021/06/09 11:12:11;;;;;;;16.83;15.23;;;;;;;;;;5049899;28;20425;-52
2021/06/09 11:14:44;;;;;;;14.57;12.37;;;;;;;;;;5050065;28;20404;-52
2021/06/09 11:17:10;;;;;;;15.90;14.43;;;;;;;;;;5050148;28;20789;-54
2021/06/09 11:19:38;;;;;;;12.20;11.00;;;;;;;;;;5050036;28;20420;-54
2021/06/09 11:22:24;;;;;;;15.00;13.60;;;;;;;;;;5049864;28;20408;-52
2021/06/09 11:25:09;;;;;;;13.60;12.37;;;;;;;;;;5050045;28;20905;-52
2021/06/09 11:27:35;;;;;;;12.90;11.60;;;;;;;;;;5050153;28;20396;-52
2021/06/09 11:30:20;;;;;;;11.53;10.63;;;;;;;;;;5049816;28;20944;-52
2021/06/09 11:32:46;;;;;;;11.80;10.57;;;;;;;;;;5049868;28;20409;-52
2021/06/09 11:35:12;;;;;;;11.50;10.40;;;;;;;;;;5049462;28;20495;-52
2021/06/09 11:37:38;;;;;;;12.03;11.07;;;;;;;;;;5049255;28;20901;-52
2021/06/09 11:40:06;;;;;;;11.33;10.43;;;;;;;;;;5048534;28;20420;-52
2021/06/09 11:42:32;;;;;;;12.53;11.33;;;;;;;;;;5051496;28;20776;-53
2021/06/09 11:45:18;;;;;;;14.10;12.77;;;;;;;;;;5053565;28;20401;-52
2021/06/09 11:47:44;;;;;;;10.83;10.03;;;;;;;;;;5053411;28;20405;-53
2021/06/09 11:50:27;;;;;;;13.13;12.03;;;;;;;;;;5053557;28;20818;-52
2021/06/09 11:53:12;;;;;;;11.43;10.50;;;;;;;;;;5053182;28;20432;-54
2021/06/09 11:55:38;;;;;;;11.90;10.60;;;;;;;;;;5053497;28;20456;-52
2021/06/09 11:58:12;;;;;;;11.53;10.43;;;;;;;;;;5053321;28;20394;-52
2021/06/09 12:00:56;;;;;;;11.53;10.43;;;;;;;;;;5053346;28;20513;-53
2021/06/09 12:03:22;;;;;;;12.13;11.03;;;;;;;;;;5052958;28;20425;-52
2021/06/09 12:05:48;;;;;;;12.57;11.37;;;;;;;;;;5053497;28;20467;-52
2021/06/09 12:08:14;;;;;;;12.20;11.10;;;;;;;;;;5053178;28;20411;-52
2021/06/09 12:10:41;;;;;;;12.70;11.37;;;;;;;;;;5053264;28;20402;-52
2021/06/09 12:13:07;;;;;;;11.50;10.60;;;;;;;;;;5053185;28;20940;-52
2021/06/09 12:15:33;;;;;;;10.53;9.63;;;;;;;;;;5053205;28;20923;-52
2021/06/09 12:17:59;;;;;;;13.80;10.83;;;;;;;;;;5053376;28;20409;-53
2021/06/09 12:20:25;;;;;;;10.33;9.43;;;;;;;;;;5052926;28;20413;-53
2021/06/09 12:22:52;;;;;;;12.47;11.03;;;;;;;;;;5052591;28;20425;-54
2021/06/09 12:25:20;;;;;;;12.07;10.87;;;;;;;;;;5052935;28;20901;-52
2021/06/09 12:28:03;;;;;;;11.70;10.70;;;;;;;;;;5052817;28;20401;-52
2021/06/09 12:30:29;;;;;;;11.83;10.70;;;;;;;;;;5052822;28;20971;-52
2021/06/09 12:32:55;;;;;;;12.53;11.43;;;;;;;;;;5052377;28;20482;-52
2021/06/09 12:35:22;;;;;;;13.03;11.83;;;;;;;;;;5052621;28;20544;-52
2021/06/09 12:37:50;;;;;;;12.67;11.40;;;;;;;;;;5052525;28;20405;-52
2021/06/09 12:40:18;;;;;;;12.10;11.20;;;;;;;;;;5052640;28;20476;-52
2021/06/09 12:42:48;;;;;;;14.23;11.60;;;;;;;;;;5052270;28;20435;-52
2021/06/09 12:45:14;;;;;;;14.40;13.00;;;;;;;;;;5052506;28;20405;-54
2021/06/09 12:47:41;;;;;;;17.07;13.10;;;;;;;;;;5045352;28;20485;-54
2021/06/09 12:50:08;;;;;;;14.57;11.77;;;;;;;;;;5032729;28;20430;-52
2021/06/09 12:52:34;;;;;;;13.47;12.07;;;;;;;;;;5032263;28;20407;-55
2021/06/09 12:55:01;;;;;;;13.40;12.30;;;;;;;;;;5032393;28;20827;-53
2021/06/09 12:57:30;;;;;;;12.90;11.80;;;;;;;;;;5032612;28;20433;-52
2021/06/09 12:59:56;;;;;;;12.33;11.30;;;;;;;;;;5031921;28;20452;-54
2021/06/09 13:02:22;;;;;;;14.80;11.13;;;;;;;;;;5032259;28;20777;-52
2021/06/09 13:04:50;;;;;;;13.17;11.90;;;;;;;;;;5032280;28;20409;-54
2021/06/09 13:07:22;;;;;;;13.10;12.00;;;;;;;;;;5032035;28;20391;-52
2021/06/09 13:09:55;;;;;;;13.13;12.00;;;;;;;;;;5031901;28;20609;-52
2021/06/09 13:12:30;;;;;;;11.33;10.33;;;;;;;;;;5031859;28;20401;-53
2021/06/09 13:14:57;;;;;;;11.93;10.80;;;;;;;;;;5031943;28;20394;-53
2021/06/09 13:17:23;;;;;;;11.67;10.30;;;;;;;;;;5032099;28;20439;-53
2021/06/09 13:19:50;;;;;;;11.00;9.90;;;;;;;;;;5031836;28;20420;-52
2021/06/09 13:22:18;;;;;;;15.30;9.67;;;;;;;;;;5031909;28;20403;-52
2021/06/09 13:24:44;;;;;;;12.90;10.43;;;;;;;;;;5031970;28;20882;-52
2021/06/09 13:27:15;;;;;;;13.47;12.37;;;;;;;;;;5031717;28;20445;-52
2021/06/09 13:29:42;;;;;;;11.00;9.93;;;;;;;;;;5031799;28;20430;-55
2021/06/09 13:32:28;;;;;;;10.53;9.67;;;;;;;;;;5031563;28;20401;-52
2021/06/09 13:34:54;;;;;;;10.57;9.70;;;;;;;;;;5032223;28;20422;-52
2021/06/09 13:37:25;;;;;;;10.13;9.23;;;;;;;;;;5031823;28;20997;-52
2021/06/09 13:39:57;;;;;;;10.40;9.60;;;;;;;;;;5031950;28;20914;-52
2021/06/09 13:42:30;;;;;;;11.33;10.50;;;;;;;;;;5031460;28;20834;-52
2021/06/09 13:44:59;;;;;;;10.67;9.77;;;;;;;;;;5031825;28;20464;-52
2021/06/09 13:47:26;;;;;;;11.07;10.27;;;;;;;;;;5031508;28;20410;-52
2021/06/09 13:49:54;;;;;;;15.13;10.40;;;;;;;;;;5031324;28;20457;-52
2021/06/09 13:52:25;;;;;;;11.30;10.20;;;;;;;;;;5031144;28;20398;-52
2021/06/09 13:54:54;;;;;;;10.93;10.07;;;;;;;;;;5031643;28;20406;-52
2021/06/09 13:57:24;;;;;;;11.20;10.23;;;;;;;;;;5031177;28;20457;-54
2021/06/09 13:59:52;;;;;;;10.87;10.00;;;;;;;;;;5031278;28;20437;-53
2021/06/09 14:02:28;;;;;;;10.27;9.30;;;;;;;;;;5030838;28;20430;-54
2021/06/09 14:05:01;;;;;;;12.50;10.60;;;;;;;;;;5030690;28;20921;-52
2021/06/09 14:07:27;;;;;;;11.40;9.57;;;;;;;;;;5031180;28;20406;-52
2021/06/09 14:09:56;;;;;;;12.70;10.40;;;;;;;;;;5031086;28;20429;-52
2021/06/09 14:12:22;;;;;;;10.63;9.63;;;;;;;;;;5030667;28;20406;-53
2021/06/09 14:14:48;;;;;;;12.23;11.00;;;;;;;;;;5030912;28;20438;-52
2021/06/09 14:17:14;;;;;;;11.27;10.27;;;;;;;;;;5030927;28;20490;-52
2021/06/09 14:19:52;;;;;;;10.97;10.17;;;;;;;;;;5030838;28;20457;-53
2021/06/09 14:22:25;;;;;;;10.77;9.77;;;;;;;;;;5030712;28;20386;-52
2021/06/09 14:24:53;;;;;;;10.57;9.67;;;;;;;;;;5030830;28;20493;-52